createdAt,value
2018-12-19T00:01:23.624Z,0.75
2018-12-19T00:03:51.764Z,0.67
2018-12-19T00:06:19.942Z,0.67
2018-12-19T00:08:48.357Z,0.73
2018-12-19T00:11:16.500Z,0.83
2018-12-19T00:13:44.675Z,0.87
2018-12-19T00:16:12.804Z,0.87
2018-12-19T00:18:40.940Z,0.84
2018-12-19T00:21:09.217Z,0.82
2018-12-19T00:23:38.390Z,0.81
2018-12-19T00:26:06.521Z,0.82
2018-12-19T00:28:34.736Z,0.81
2018-12-19T00:31:02.878Z,0.77
2018-12-19T00:33:31.089Z,0.79
2018-12-19T00:35:59.241Z,0.80
2018-12-19T00:38:27.373Z,0.85
2018-12-19T00:40:55.542Z,0.93
2018-12-19T00:43:23.725Z,0.96
2018-12-19T00:45:51.858Z,0.98
2018-12-19T00:48:20.238Z,0.97
2018-12-19T00:50:48.371Z,0.98
2018-12-19T00:53:16.515Z,0.98
2018-12-19T00:55:44.644Z,0.93
2018-12-19T00:58:12.946Z,0.92
2018-12-19T01:00:41.082Z,0.92
2018-12-19T01:03:09.214Z,0.95
2018-12-19T01:05:37.380Z,1.00
2018-12-19T01:08:05.573Z,1.08
2018-12-19T01:10:33.694Z,1.12
2018-12-19T01:13:01.817Z,1.11
2018-12-19T01:15:30.042Z,1.07
2018-12-19T01:17:58.169Z,1.05
2018-12-19T01:20:26.307Z,1.07
2018-12-19T01:22:54.481Z,1.12
2018-12-19T01:25:22.898Z,1.17
2018-12-19T01:27:51.054Z,1.22
2018-12-19T01:30:19.264Z,1.25
2018-12-19T01:32:47.387Z,1.24
2018-12-19T01:35:15.537Z,1.29
2018-12-19T01:37:43.781Z,1.34
2018-12-19T01:40:11.932Z,1.32
2018-12-19T01:42:40.183Z,1.34
2018-12-19T01:45:08.467Z,1.39
2018-12-19T01:47:36.641Z,1.49
2018-12-19T01:50:05.177Z,1.52
2018-12-19T01:52:33.324Z,1.55
2018-12-19T01:55:01.468Z,1.51
2018-12-19T01:57:29.610Z,1.61
2018-12-19T01:59:57.742Z,1.50
2018-12-19T02:02:25.870Z,1.49
2018-12-19T02:04:54.041Z,1.61
2018-12-19T02:07:22.217Z,1.92
2018-12-19T02:09:50.378Z,1.97
2018-12-19T02:12:18.597Z,1.91
2018-12-19T02:14:46.813Z,1.72
2018-12-19T02:17:14.916Z,1.58
2018-12-19T02:19:43.126Z,1.70
2018-12-19T02:22:11.246Z,1.75
2018-12-19T02:24:39.384Z,1.69
2018-12-19T02:27:07.598Z,1.55
2018-12-19T02:29:35.809Z,1.52
2018-12-19T02:32:08.164Z,1.62
2018-12-19T02:34:36.501Z,1.64
2018-12-19T02:37:04.610Z,1.75
2018-12-19T02:39:36.080Z,1.78
2018-12-19T02:42:02.852Z,2.01
2018-12-19T02:44:30.979Z,1.98
2018-12-19T02:46:59.453Z,2.08
2018-12-19T02:49:27.635Z,1.96
2018-12-19T02:51:55.772Z,1.96
2018-12-19T02:54:24.090Z,1.80
2018-12-19T02:56:52.222Z,1.77
2018-12-19T02:59:20.359Z,2.00
2018-12-19T03:01:48.537Z,2.02
2018-12-19T03:04:16.692Z,2.13
2018-12-19T03:06:45.113Z,2.22
2018-12-19T03:09:13.985Z,2.21
2018-12-19T03:11:42.181Z,1.92
2018-12-19T03:14:10.315Z,2.01
2018-12-19T03:16:38.434Z,2.12
2018-12-19T03:19:06.654Z,2.04
2018-12-19T03:21:34.786Z,2.00
2018-12-19T03:24:02.945Z,1.92
2018-12-19T03:26:31.074Z,1.85
2018-12-19T03:28:59.346Z,1.76
2018-12-19T03:31:27.576Z,1.68
2018-12-19T03:33:55.830Z,1.67
2018-12-19T03:36:24.133Z,1.69
2018-12-19T03:38:52.255Z,1.75
2018-12-19T03:41:20.458Z,1.74
2018-12-19T03:43:48.591Z,1.67
2018-12-19T03:46:16.744Z,1.70
2018-12-19T03:48:50.439Z,1.68
2018-12-19T03:51:18.895Z,1.65
2018-12-19T03:53:47.023Z,1.57
2018-12-19T03:56:15.539Z,1.54
2018-12-19T03:58:43.965Z,1.50
2018-12-19T04:01:12.094Z,1.45
2018-12-19T04:03:40.235Z,1.51
2018-12-19T04:06:08.389Z,1.46
2018-12-19T04:08:36.520Z,1.44
2018-12-19T04:11:04.745Z,1.39
2018-12-19T04:13:32.952Z,1.38
2018-12-19T04:16:01.085Z,1.39
2018-12-19T04:18:29.297Z,1.41
2018-12-19T04:20:57.576Z,1.40
2018-12-19T04:23:25.753Z,1.32
2018-12-19T04:25:53.986Z,1.24
2018-12-19T04:28:22.101Z,1.21
2018-12-19T04:30:50.241Z,1.25
2018-12-19T04:33:18.385Z,1.44
2018-12-19T04:35:46.892Z,1.49
2018-12-19T04:38:15.402Z,1.60
2018-12-19T04:40:43.640Z,1.57
2018-12-19T04:43:11.919Z,1.55
2018-12-19T04:45:40.059Z,1.51
2018-12-19T04:48:08.234Z,1.42
2018-12-19T04:50:36.434Z,1.39
2018-12-19T04:53:04.600Z,1.41
2018-12-19T04:55:32.746Z,1.43
2018-12-19T04:58:00.874Z,1.53
2018-12-19T05:00:29.070Z,1.58
2018-12-19T05:02:57.202Z,1.49
2018-12-19T05:05:25.362Z,1.41
2018-12-19T05:07:53.876Z,1.38
2018-12-19T05:10:22.035Z,1.37
2018-12-19T05:12:50.192Z,1.40
2018-12-19T05:15:18.426Z,1.44
2018-12-19T05:17:46.536Z,1.50
2018-12-19T05:20:14.669Z,1.45
2018-12-19T05:22:42.798Z,1.41
2018-12-19T05:25:12.990Z,1.35
2018-12-19T05:27:41.115Z,1.30
2018-12-19T05:30:09.581Z,1.35
2018-12-19T05:32:37.754Z,1.32
2018-12-19T05:35:06.568Z,1.35
2018-12-19T05:37:34.773Z,1.36
2018-12-19T05:40:02.994Z,1.42
2018-12-19T05:42:31.144Z,1.53
2018-12-19T05:44:59.320Z,1.51
2018-12-19T05:47:27.890Z,1.42
2018-12-19T05:49:56.609Z,1.37
2018-12-19T05:52:26.437Z,1.30
2018-12-19T05:54:54.894Z,1.30
2018-12-19T05:57:23.317Z,1.30
2018-12-19T05:59:51.464Z,1.34
2018-12-19T06:02:19.758Z,1.29
2018-12-19T06:04:47.932Z,1.24
2018-12-19T06:07:16.135Z,1.26
2018-12-19T06:09:44.259Z,1.28
2018-12-19T06:12:12.414Z,1.36
2018-12-19T06:14:40.630Z,1.38
2018-12-19T06:17:08.785Z,1.56
2018-12-19T06:19:36.931Z,1.59
2018-12-19T06:22:05.102Z,1.54
2018-12-19T06:24:33.226Z,1.55
2018-12-19T06:27:01.383Z,1.59
2018-12-19T06:29:29.520Z,1.76
2018-12-19T06:31:57.636Z,1.74
2018-12-19T06:34:25.761Z,1.68
2018-12-19T06:36:53.935Z,1.64
2018-12-19T06:39:22.154Z,1.64
2018-12-19T06:41:50.947Z,1.58
2018-12-19T06:44:19.107Z,1.54
2018-12-19T06:46:47.209Z,1.58
2018-12-19T06:49:15.345Z,1.58
2018-12-19T06:51:43.493Z,1.62
2018-12-19T06:54:11.772Z,1.62
2018-12-19T06:56:39.900Z,1.56
2018-12-19T06:59:08.042Z,1.57
2018-12-19T07:01:36.161Z,1.60
2018-12-19T07:04:04.511Z,1.58
2018-12-19T07:06:32.650Z,1.57
2018-12-19T07:09:01.580Z,1.54
2018-12-19T07:11:29.954Z,1.39
2018-12-19T07:13:58.086Z,1.45
2018-12-19T07:16:26.225Z,1.48
2018-12-19T07:18:54.364Z,1.46
2018-12-19T07:21:22.513Z,1.46
2018-12-19T07:23:50.806Z,1.43
2018-12-19T07:26:19.067Z,1.46
2018-12-19T07:28:47.199Z,1.49
2018-12-19T07:31:15.459Z,1.53
2018-12-19T07:33:43.839Z,1.59
2018-12-19T07:36:11.990Z,1.69
2018-12-19T07:38:40.209Z,1.81
2018-12-19T07:41:08.349Z,1.91
2018-12-19T07:43:36.618Z,1.94
2018-12-19T07:46:04.758Z,2.04
2018-12-19T07:48:33.538Z,2.12
2018-12-19T07:51:01.691Z,2.10
2018-12-19T07:53:29.904Z,2.13
2018-12-19T07:55:59.071Z,2.21
2018-12-19T07:58:27.226Z,2.34
2018-12-19T08:00:55.351Z,2.39
2018-12-19T08:03:23.819Z,2.26
2018-12-19T08:05:51.951Z,2.25
2018-12-19T08:08:20.113Z,2.24
2018-12-19T08:10:52.172Z,2.31
2018-12-19T08:13:18.409Z,2.52
2018-12-19T08:15:46.714Z,2.75
2018-12-19T08:18:14.848Z,2.84
2018-12-19T08:20:42.959Z,2.65
2018-12-19T08:23:11.118Z,2.59
2018-12-19T08:25:39.226Z,2.63
2018-12-19T08:28:07.445Z,2.64
2018-12-19T08:30:35.586Z,2.24
2018-12-19T08:33:03.725Z,1.93
2018-12-19T08:35:31.865Z,1.87
2018-12-19T08:38:00.015Z,1.78
2018-12-19T08:40:28.145Z,1.82
2018-12-19T08:42:56.537Z,1.77
2018-12-19T08:45:26.053Z,1.67
2018-12-19T08:47:54.186Z,1.61
2018-12-19T08:50:22.342Z,1.60
2018-12-19T08:52:50.485Z,1.55
2018-12-19T08:55:18.594Z,1.61
2018-12-19T08:57:46.744Z,1.62
2018-12-19T09:00:14.985Z,1.59
2018-12-19T09:02:43.170Z,1.61
2018-12-19T09:05:11.295Z,1.56
2018-12-19T09:07:39.425Z,1.60
2018-12-19T09:10:08.205Z,1.63
2018-12-19T09:12:36.418Z,1.63
2018-12-19T09:15:05.408Z,1.66
2018-12-19T09:17:33.618Z,1.73
2018-12-19T09:20:02.311Z,1.76
2018-12-19T09:22:30.611Z,1.80
2018-12-19T09:24:58.846Z,1.83
2018-12-19T09:27:27.266Z,1.87
2018-12-19T09:29:55.479Z,1.88
2018-12-19T09:32:23.711Z,1.89
2018-12-19T09:34:51.925Z,1.85
2018-12-19T09:37:20.047Z,1.89
2018-12-19T09:39:48.157Z,1.89
2018-12-19T09:42:16.409Z,1.91
2018-12-19T09:44:44.533Z,1.97
2018-12-19T09:47:12.699Z,2.05
2018-12-19T09:49:40.819Z,2.12
2018-12-19T09:52:09.048Z,2.10
2018-12-19T09:54:37.284Z,2.12
2018-12-19T09:57:05.450Z,2.24
2018-12-19T09:59:33.598Z,2.30
2018-12-19T10:02:01.856Z,2.32
2018-12-19T10:04:30.085Z,2.35
2018-12-19T10:06:59.062Z,2.39
2018-12-19T10:09:27.250Z,2.42
2018-12-19T10:11:55.397Z,2.46
2018-12-19T10:14:23.542Z,2.51
2018-12-19T10:16:51.677Z,2.60
2018-12-19T10:19:19.910Z,2.53
2018-12-19T10:21:48.534Z,2.59
2018-12-19T10:24:16.679Z,2.63
2018-12-19T10:26:44.823Z,2.70
2018-12-19T10:29:13.044Z,2.70
2018-12-19T10:31:41.270Z,2.69
2018-12-19T10:34:09.429Z,2.74
2018-12-19T10:36:37.701Z,2.71
2018-12-19T10:39:12.686Z,2.71
2018-12-19T10:41:40.882Z,2.79
2018-12-19T10:44:09.346Z,2.79
2018-12-19T10:46:38.369Z,2.75
2018-12-19T10:49:06.650Z,2.77
2018-12-19T10:51:34.824Z,2.79
2018-12-19T10:54:02.961Z,2.72
2018-12-19T10:56:31.070Z,2.83
2018-12-19T10:58:59.250Z,2.95
2018-12-19T11:01:27.461Z,2.95
2018-12-19T11:03:55.609Z,2.99
2018-12-19T11:06:23.904Z,3.08
2018-12-19T11:08:52.152Z,3.33
2018-12-19T11:11:20.300Z,3.42
2018-12-19T11:13:48.421Z,3.53
2018-12-19T11:16:16.561Z,3.59
2018-12-19T11:18:44.709Z,3.57
2018-12-19T11:21:12.942Z,3.56
2018-12-19T11:23:41.344Z,3.60
2018-12-19T11:26:09.658Z,3.45
2018-12-19T11:28:37.829Z,3.41
2018-12-19T11:31:06.046Z,3.41
2018-12-19T11:33:34.285Z,3.36
2018-12-19T11:36:03.088Z,3.39
2018-12-19T11:38:31.232Z,3.44
2018-12-19T11:40:59.345Z,3.45
2018-12-19T11:43:27.602Z,3.54
2018-12-19T11:45:55.777Z,3.62
2018-12-19T11:48:23.899Z,3.58
2018-12-19T11:50:52.019Z,3.59
2018-12-19T11:53:20.189Z,3.60
2018-12-19T11:55:48.426Z,3.67
2018-12-19T11:58:16.558Z,3.73
2018-12-19T12:00:44.922Z,3.61
2018-12-19T12:03:13.155Z,3.62
2018-12-19T12:05:41.277Z,3.60
2018-12-19T12:08:09.451Z,3.58
2018-12-19T12:10:37.627Z,3.50
2018-12-19T12:13:05.889Z,3.47
2018-12-19T12:15:34.898Z,3.52
2018-12-19T12:18:03.048Z,3.54
2018-12-19T12:20:31.248Z,3.63
2018-12-19T12:22:59.478Z,3.71
2018-12-19T12:25:27.693Z,3.64
2018-12-19T12:27:55.841Z,3.65
2018-12-19T12:30:23.962Z,3.66
2018-12-19T12:32:52.097Z,3.76
2018-12-19T12:35:20.289Z,3.83
2018-12-19T12:37:48.466Z,3.85
2018-12-19T12:40:16.753Z,3.95
2018-12-19T12:42:44.911Z,4.08
2018-12-19T12:45:13.041Z,4.19
2018-12-19T12:47:41.180Z,4.17
2018-12-19T12:50:09.386Z,3.98
2018-12-19T12:52:37.513Z,3.92
2018-12-19T12:55:06.195Z,3.84
2018-12-19T12:57:34.309Z,3.89
2018-12-19T13:00:02.451Z,3.82
2018-12-19T13:02:30.634Z,3.78
2018-12-19T13:04:58.769Z,3.82
2018-12-19T13:07:26.881Z,3.80
2018-12-19T13:09:55.101Z,3.88
2018-12-19T13:12:23.318Z,3.94
2018-12-19T13:14:51.446Z,3.93
2018-12-19T13:17:19.799Z,3.90
2018-12-19T13:19:47.924Z,3.96
2018-12-19T13:22:16.085Z,4.03
2018-12-19T13:24:44.223Z,4.13
2018-12-19T13:27:12.474Z,4.23
2018-12-19T13:29:40.965Z,4.32
2018-12-19T13:32:10.225Z,4.38
2018-12-19T13:34:38.411Z,4.16
2018-12-19T13:37:06.633Z,4.15
2018-12-19T13:39:34.837Z,4.16
2018-12-19T13:42:05.809Z,4.22
2018-12-19T13:44:33.097Z,4.32
2018-12-19T13:47:01.476Z,4.41
2018-12-19T13:49:29.643Z,4.40
2018-12-19T13:51:57.770Z,4.32
2018-12-19T13:54:26.160Z,4.28
2018-12-19T13:56:54.297Z,4.25
2018-12-19T13:59:22.441Z,4.27
2018-12-19T14:01:50.601Z,4.32
2018-12-19T14:04:18.822Z,4.30
2018-12-19T14:06:47.028Z,4.31
2018-12-19T14:09:15.155Z,4.28
2018-12-19T14:11:43.325Z,4.29
2018-12-19T14:14:11.475Z,4.29
2018-12-19T14:16:39.745Z,4.29
2018-12-19T14:19:07.937Z,4.32
2018-12-19T14:21:36.463Z,4.33
2018-12-19T14:24:04.781Z,4.35
2018-12-19T14:26:32.905Z,4.32
2018-12-19T14:29:01.057Z,4.30
2018-12-19T14:31:29.206Z,4.32
2018-12-19T14:33:57.362Z,4.31
2018-12-19T14:36:25.509Z,4.30
2018-12-19T14:38:53.638Z,4.29
2018-12-19T14:41:21.837Z,4.31
2018-12-19T14:43:49.981Z,4.34
2018-12-19T14:46:18.117Z,4.36
2018-12-19T14:48:46.249Z,4.33
2018-12-19T14:51:14.486Z,4.33
2018-12-19T14:53:42.755Z,4.35
2018-12-19T14:56:10.920Z,4.40
2018-12-19T14:58:39.058Z,4.37
2018-12-19T15:01:07.358Z,4.37
2018-12-19T15:03:35.581Z,4.38
2018-12-19T15:06:03.717Z,4.42
2018-12-19T15:08:32.011Z,4.44
2018-12-19T15:11:00.284Z,4.45
2018-12-19T15:13:28.558Z,4.44
2018-12-19T15:16:02.291Z,4.43
2018-12-19T15:18:30.725Z,4.39
2018-12-19T15:20:58.958Z,4.42
2018-12-19T15:23:27.112Z,4.49
2018-12-19T15:25:55.237Z,4.50
2018-12-19T15:28:23.409Z,4.54
2018-12-19T15:30:51.563Z,4.57
2018-12-19T15:33:19.746Z,4.57
2018-12-19T15:35:48.143Z,4.64
2018-12-19T15:38:16.516Z,4.65
2018-12-19T15:40:44.934Z,4.61
2018-12-19T15:43:13.136Z,4.53
2018-12-19T15:45:41.464Z,4.51
2018-12-19T15:48:09.585Z,4.49
2018-12-19T15:50:37.765Z,4.51
2018-12-19T15:53:05.907Z,4.52
2018-12-19T15:55:34.051Z,4.51
2018-12-19T15:58:02.166Z,4.51
2018-12-19T16:00:30.352Z,4.49
2018-12-19T16:02:58.581Z,4.46
2018-12-19T16:05:26.730Z,4.46
2018-12-19T16:07:54.943Z,4.48
2018-12-19T16:10:23.075Z,4.46
2018-12-19T16:12:51.250Z,4.44
2018-12-19T16:15:19.578Z,4.43
2018-12-19T16:17:47.747Z,4.49
2018-12-19T16:20:15.993Z,4.47
2018-12-19T16:22:44.236Z,4.44
2018-12-19T16:25:12.740Z,4.43
2018-12-19T16:27:41.687Z,4.40
2018-12-19T16:30:10.250Z,4.43
2018-12-19T16:32:38.623Z,4.49
2018-12-19T16:35:07.420Z,4.49
2018-12-19T16:37:38.804Z,4.52
2018-12-19T16:40:07.129Z,4.60
2018-12-19T16:42:35.277Z,4.59
2018-12-19T16:45:03.642Z,4.54
2018-12-19T16:47:31.958Z,4.44
2018-12-19T16:50:00.107Z,4.47
2018-12-19T16:52:28.246Z,4.34
2018-12-19T16:54:56.397Z,4.25
2018-12-19T16:57:24.533Z,4.22
2018-12-19T16:59:52.747Z,4.22
2018-12-19T17:02:20.918Z,4.29
2018-12-19T17:04:49.035Z,4.30
2018-12-19T17:07:17.178Z,4.16
2018-12-19T17:09:45.310Z,4.17
2018-12-19T17:12:14.220Z,4.18
2018-12-19T17:14:42.658Z,4.20
2018-12-19T17:17:10.826Z,4.24
2018-12-19T17:19:39.036Z,4.34
2018-12-19T17:22:07.163Z,4.38
2018-12-19T17:24:40.720Z,4.31
2018-12-19T17:27:08.897Z,4.24
2018-12-19T17:29:37.041Z,4.24
2018-12-19T17:32:05.477Z,4.35
2018-12-19T17:34:33.611Z,4.36
2018-12-19T17:37:01.769Z,4.36
2018-12-19T17:39:29.978Z,4.42
2018-12-19T17:41:58.169Z,4.41
2018-12-19T17:44:26.520Z,4.52
2018-12-19T17:46:54.758Z,4.63
2018-12-19T17:49:22.893Z,4.55
2018-12-19T17:51:51.066Z,4.35
2018-12-19T17:54:19.865Z,4.27
2018-12-19T17:56:48.010Z,4.42
2018-12-19T17:59:16.233Z,4.23
2018-12-19T18:01:44.461Z,4.19
2018-12-19T18:04:12.748Z,4.10
2018-12-19T18:06:40.975Z,4.12
2018-12-19T18:09:09.110Z,4.15
2018-12-19T18:11:37.263Z,4.26
2018-12-19T18:14:05.782Z,4.28
2018-12-19T18:16:34.001Z,4.20
2018-12-19T18:19:02.225Z,4.24
2018-12-19T18:21:30.417Z,4.33
2018-12-19T18:23:58.549Z,4.26
2018-12-19T18:26:26.702Z,4.17
2018-12-19T18:28:54.838Z,4.16
2018-12-19T18:31:23.116Z,4.12
2018-12-19T18:33:51.260Z,4.18
2018-12-19T18:36:19.398Z,4.14
2018-12-19T18:38:47.559Z,4.09
2018-12-19T18:41:15.706Z,4.14
2018-12-19T18:43:44.473Z,4.15
2018-12-19T18:46:12.642Z,4.30
2018-12-19T18:48:40.837Z,4.26
2018-12-19T18:51:09.014Z,4.02
2018-12-19T18:53:37.135Z,4.10
2018-12-19T18:56:05.453Z,3.96
2018-12-19T18:58:33.577Z,4.17
2018-12-19T19:01:01.809Z,4.14
2018-12-19T19:03:30.133Z,4.09
2018-12-19T19:05:58.458Z,4.20
2018-12-19T19:08:26.735Z,4.22
2018-12-19T19:10:54.939Z,4.30
2018-12-19T19:13:23.090Z,4.17
2018-12-19T19:15:51.214Z,4.20
2018-12-19T19:18:19.531Z,4.36
2018-12-19T19:20:48.069Z,4.44
2018-12-19T19:23:16.294Z,4.53
2018-12-19T19:25:44.430Z,4.53
2018-12-19T19:28:19.038Z,4.26
2018-12-19T19:30:47.191Z,4.25
2018-12-19T19:33:15.349Z,4.29
2018-12-19T19:35:43.577Z,4.21
2018-12-19T19:38:11.705Z,4.07
2018-12-19T19:40:40.014Z,4.09
2018-12-19T19:43:08.171Z,4.16
2018-12-19T19:45:36.340Z,4.12
2018-12-19T19:48:04.573Z,4.09
2018-12-19T19:50:32.713Z,4.09
2018-12-19T19:53:00.847Z,4.13
2018-12-19T19:55:28.978Z,4.14
2018-12-19T19:57:57.133Z,4.11
2018-12-19T20:00:31.391Z,4.15
2018-12-19T20:02:59.729Z,4.19
2018-12-19T20:05:27.903Z,4.35
2018-12-19T20:07:56.061Z,4.48
2018-12-19T20:10:24.209Z,4.65
2018-12-19T20:12:52.430Z,4.76
2018-12-19T20:15:20.602Z,4.87
2018-12-19T20:17:48.746Z,4.88
2018-12-19T20:20:16.908Z,4.89
2018-12-19T20:22:45.028Z,4.94
2018-12-19T20:25:13.276Z,5.03
2018-12-19T20:27:41.430Z,5.08
2018-12-19T20:30:11.565Z,5.21
2018-12-19T20:32:39.690Z,5.34
2018-12-19T20:35:08.023Z,5.49
2018-12-19T20:37:36.163Z,5.46
2018-12-19T20:40:04.709Z,5.65
2018-12-19T20:42:32.848Z,5.99
2018-12-19T20:45:01.035Z,6.02
2018-12-19T20:47:29.455Z,6.21
2018-12-19T20:49:57.709Z,6.30
2018-12-19T20:52:25.985Z,6.37
2018-12-19T20:54:54.137Z,6.44
2018-12-19T20:57:23.006Z,6.52
2018-12-19T20:59:51.415Z,6.58
2018-12-19T21:02:19.638Z,6.53
2018-12-19T21:04:47.860Z,6.42
2018-12-19T21:07:16.058Z,5.90
2018-12-19T21:09:44.190Z,5.89
2018-12-19T21:12:12.324Z,5.91
2018-12-19T21:14:40.455Z,5.62
2018-12-19T21:18:16.746Z,5.58
2018-12-19T21:20:45.056Z,5.56
2018-12-19T21:23:13.317Z,5.59
2018-12-19T21:25:41.587Z,5.47
2018-12-19T21:28:09.758Z,5.46
2018-12-19T21:30:37.891Z,5.28
2018-12-19T21:33:06.183Z,5.29
2018-12-19T21:35:34.305Z,5.23
2018-12-19T21:38:02.618Z,5.32
2018-12-19T21:40:30.810Z,5.19
2018-12-19T21:42:59.023Z,5.19
2018-12-19T21:45:27.237Z,5.20
2018-12-19T21:47:55.398Z,5.28
2018-12-19T21:50:23.654Z,5.22
2018-12-19T21:52:51.842Z,5.17
2018-12-19T21:55:19.995Z,5.22
2018-12-19T21:57:48.264Z,5.34
2018-12-19T22:02:44.824Z,5.17
2018-12-19T22:05:12.955Z,5.23
2018-12-19T22:07:41.285Z,5.39
2018-12-19T22:10:09.511Z,5.25
2018-12-19T22:12:37.937Z,5.17
2018-12-19T22:15:06.548Z,5.08
2018-12-19T22:17:40.132Z,5.06
2018-12-19T22:20:08.511Z,5.15
2018-12-19T22:22:36.785Z,5.20
2018-12-19T22:25:05.420Z,5.28
2018-12-19T22:27:33.631Z,5.32
2018-12-19T22:30:01.855Z,5.38
2018-12-19T22:32:30.309Z,5.42
2018-12-19T22:34:58.621Z,5.44
2018-12-19T22:37:26.887Z,5.49
2018-12-19T22:39:55.005Z,5.47
2018-12-19T22:42:23.185Z,5.52
2018-12-19T22:44:51.316Z,5.61
2018-12-19T22:47:19.537Z,5.60
2018-12-19T22:49:47.654Z,5.63
2018-12-19T22:52:15.782Z,5.39
2018-12-19T22:54:43.919Z,5.33
2018-12-19T22:57:12.087Z,5.30
2018-12-19T22:59:40.213Z,5.16
2018-12-19T23:02:13.825Z,5.29
2018-12-19T23:04:41.968Z,5.38
2018-12-19T23:07:10.263Z,5.39
2018-12-19T23:09:38.572Z,5.36
2018-12-19T23:12:06.829Z,5.47
2018-12-19T23:14:35.075Z,5.53
2018-12-19T23:17:07.483Z,5.63
2018-12-19T23:19:35.715Z,5.55
2018-12-19T23:22:03.926Z,5.62
2018-12-19T23:24:32.138Z,5.57
2018-12-19T23:27:00.354Z,5.54
2018-12-19T23:29:29.073Z,5.48
2018-12-19T23:31:57.338Z,5.42
2018-12-19T23:34:25.567Z,5.42
2018-12-19T23:36:53.722Z,5.42
2018-12-19T23:39:22.043Z,5.52
2018-12-19T23:41:50.193Z,5.59
2018-12-19T23:44:22.714Z,5.73
2018-12-19T23:46:51.094Z,5.63
2018-12-19T23:49:19.404Z,5.68
2018-12-19T23:51:47.553Z,5.73
2018-12-19T23:54:15.700Z,5.66
2018-12-19T23:56:43.915Z,5.59
2018-12-19T23:59:12.093Z,5.54
